Terminal Aerodrome Forecast
Issued by NWS Mt. Holly, NJ

Home | Current Version | Previous Version | Text Only | Print | Product List | Glossary On
Versions: 1 2 3 4 5 6 7 8 9 10 11 12 13 14 15 16 17 18 19
000
FTUS41 KPHI 122300
TAFABE
TAF
KABE 122334Z 1300/1324 22009KT P6SM FEW060
     FM130600 VRB05KT 5SM BR SCT250
     FM131300 21008KT P6SM SCT040 BKN250
     FM131800 22012G20KT P6SM BKN040 BKN200=

USA.gov is the U.S. government's official web portal to all federal, state and local government web resources and services.